sensor_id;sensor_type;location;lat;lon;timestamp;pressure;altitude;pressure_sealevel;temperature;humidity
21640;BME280;10981;45.462;10.974;2022-10-16T00:01:45;101081.69;;;14.03;100.00
21640;BME280;10981;45.462;10.974;2022-10-16T00:04:13;101076.25;;;13.95;100.00
21640;BME280;10981;45.462;10.974;2022-10-16T00:06:42;101082.38;;;13.95;100.00
21640;BME280;10981;45.462;10.974;2022-10-16T00:09:10;101075.28;;;13.96;100.00
21640;BME280;10981;45.462;10.974;2022-10-16T00:11:40;101079.03;;;13.93;100.00
21640;BME280;10981;45.462;10.974;2022-10-16T00:14:13;101079.75;;;13.95;100.00
21640;BME280;10981;45.462;10.974;2022-10-16T00:16:42;101076.25;;;13.95;100.00
21640;BME280;10981;45.462;10.974;2022-10-16T00:19:11;101077.91;;;13.96;100.00
21640;BME280;10981;45.462;10.974;2022-10-16T00:21:42;101078.63;;;13.98;100.00
21640;BME280;10981;45.462;10.974;2022-10-16T00:24:29;101079.88;;;14.03;100.00
21640;BME280;10981;45.462;10.974;2022-10-16T00:26:58;101077.09;;;14.05;100.00
21640;BME280;10981;45.462;10.974;2022-10-16T00:29:26;101081.00;;;14.11;100.00
21640;BME280;10981;45.462;10.974;2022-10-16T00:31:55;101077.41;;;14.12;100.00
21640;BME280;10981;45.462;10.974;2022-10-16T00:34:23;101077.25;;;14.13;100.00
21640;BME280;10981;45.462;10.974;2022-10-16T00:36:52;101084.75;;;14.18;100.00
21640;BME280;10981;45.462;10.974;2022-10-16T00:39:20;101079.19;;;14.21;100.00
21640;BME280;10981;45.462;10.974;2022-10-16T00:41:48;101073.13;;;14.20;100.00
21640;BME280;10981;45.462;10.974;2022-10-16T00:47:19;101077.25;;;14.13;100.00
21640;BME280;10981;45.462;10.974;2022-10-16T00:49:50;101081.00;;;14.11;100.00
21640;BME280;10981;45.462;10.974;2022-10-16T00:52:18;101078.09;;;14.04;100.00
21640;BME280;10981;45.462;10.974;2022-10-16T00:54:47;101073.22;;;13.99;100.00
21640;BME280;10981;45.462;10.974;2022-10-16T00:57:17;101076.41;;;13.93;100.00
21640;BME280;10981;45.462;10.974;2022-10-16T00:59:46;101083.63;;;13.91;100.00
21640;BME280;10981;45.462;10.974;2022-10-16T01:02:16;101084.56;;;13.90;100.00
21640;BME280;10981;45.462;10.974;2022-10-16T01:04:52;101072.81;;;13.94;100.00
21640;BME280;10981;45.462;10.974;2022-10-16T01:07:54;101071.13;;;13.93;100.00
21640;BME280;10981;45.462;10.974;2022-10-16T01:13:38;101070.44;;;13.81;100.00
21640;BME280;10981;45.462;10.974;2022-10-16T01:16:23;101076.50;;;13.82;100.00
21640;BME280;10981;45.462;10.974;2022-10-16T01:18:57;101069.59;;;13.81;100.00
21640;BME280;10981;45.462;10.974;2022-10-16T01:21:34;101071.00;;;13.85;100.00
21640;BME280;10981;45.462;10.974;2022-10-16T01:24:44;101079.16;;;13.92;100.00
21640;BME280;10981;45.462;10.974;2022-10-16T01:27:23;101085.00;;;13.95;100.00
21640;BME280;10981;45.462;10.974;2022-10-16T01:32:46;101076.06;;;13.67;100.00
21640;BME280;10981;45.462;10.974;2022-10-16T01:35:21;101080.50;;;13.35;100.00
21640;BME280;10981;45.462;10.974;2022-10-16T01:37:57;101071.03;;;13.23;100.00
21640;BME280;10981;45.462;10.974;2022-10-16T01:40:29;101077.97;;;13.24;100.00
21640;BME280;10981;45.462;10.974;2022-10-16T01:43:11;101079.50;;;13.27;100.00
21640;BME280;10981;45.462;10.974;2022-10-16T01:45:41;101082.00;;;13.28;100.00
21640;BME280;10981;45.462;10.974;2022-10-16T01:48:13;101086.47;;;13.37;100.00
21640;BME280;10981;45.462;10.974;2022-10-16T01:50:48;101081.53;;;13.44;100.00
21640;BME280;10981;45.462;10.974;2022-10-16T01:53:18;101081.97;;;13.49;100.00
21640;BME280;10981;45.462;10.974;2022-10-16T01:55:48;101085.28;;;13.51;100.00
21640;BME280;10981;45.462;10.974;2022-10-16T01:58:17;101085.84;;;13.55;100.00
21640;BME280;10981;45.462;10.974;2022-10-16T02:00:47;101090.28;;;13.54;100.00
21640;BME280;10981;45.462;10.974;2022-10-16T02:03:18;101082.41;;;13.54;100.00
21640;BME280;10981;45.462;10.974;2022-10-16T02:05:52;101081.16;;;13.59;100.00
21640;BME280;10981;45.462;10.974;2022-10-16T02:08:24;101079.94;;;13.63;100.00
21640;BME280;10981;45.462;10.974;2022-10-16T02:10:57;101084.38;;;13.62;100.00
21640;BME280;10981;45.462;10.974;2022-10-16T02:13:42;101084.09;;;13.65;100.00
21640;BME280;10981;45.462;10.974;2022-10-16T02:16:14;101088.13;;;13.69;100.00
21640;BME280;10981;45.462;10.974;2022-10-16T02:18:44;101087.72;;;13.74;100.00
21640;BME280;10981;45.462;10.974;2022-10-16T02:21:28;101089.53;;;13.73;100.00
21640;BME280;10981;45.462;10.974;2022-10-16T02:24:08;101086.34;;;13.80;100.00
21640;BME280;10981;45.462;10.974;2022-10-16T02:26:47;101085.78;;;13.86;100.00
21640;BME280;10981;45.462;10.974;2022-10-16T02:29:20;101083.88;;;13.88;100.00
21640;BME280;10981;45.462;10.974;2022-10-16T02:31:59;101091.06;;;13.86;100.00
21640;BME280;10981;45.462;10.974;2022-10-16T02:34:31;101082.91;;;13.89;100.00
21640;BME280;10981;45.462;10.974;2022-10-16T02:37:01;101085.41;;;13.90;100.00
21640;BME280;10981;45.462;10.974;2022-10-16T02:39:32;101087.59;;;13.85;100.00
21640;BME280;10981;45.462;10.974;2022-10-16T02:42:01;101088.69;;;13.83;100.00
21640;BME280;10981;45.462;10.974;2022-10-16T02:44:30;101093.69;;;13.86;100.00
21640;BME280;10981;45.462;10.974;2022-10-16T02:46:58;101097.00;;;13.88;100.00
21640;BME280;10981;45.462;10.974;2022-10-16T02:49:28;101098.97;;;13.96;100.00
21640;BME280;10981;45.462;10.974;2022-10-16T02:51:56;101101.06;;;14.02;100.00
21640;BME280;10981;45.462;10.974;2022-10-16T02:54:24;101098.13;;;14.05;100.00
21640;BME280;10981;45.462;10.974;2022-10-16T02:56:52;101102.44;;;14.06;100.00
21640;BME280;10981;45.462;10.974;2022-10-16T02:59:20;101103.84;;;14.10;100.00
21640;BME280;10981;45.462;10.974;2022-10-16T03:01:49;101104.38;;;14.14;100.00
21640;BME280;10981;45.462;10.974;2022-10-16T03:04:17;101102.88;;;14.21;100.00
21640;BME280;10981;45.462;10.974;2022-10-16T03:06:45;101107.31;;;14.20;100.00
21640;BME280;10981;45.462;10.974;2022-10-16T03:09:13;101106.06;;;14.25;100.00
21640;BME280;10981;45.462;10.974;2022-10-16T03:11:41;101096.38;;;14.25;100.00
21640;BME280;10981;45.462;10.974;2022-10-16T03:14:10;101099.72;;;14.27;100.00
21640;BME280;10981;45.462;10.974;2022-10-16T03:16:38;101102.75;;;14.32;100.00
21640;BME280;10981;45.462;10.974;2022-10-16T03:19:08;101101.09;;;14.31;100.00
21640;BME280;10981;45.462;10.974;2022-10-16T03:21:36;101105.94;;;14.26;100.00
21640;BME280;10981;45.462;10.974;2022-10-16T03:24:04;101104.56;;;14.22;100.00
21640;BME280;10981;45.462;10.974;2022-10-16T03:26:33;101100.09;;;14.22;100.00
21640;BME280;10981;45.462;10.974;2022-10-16T03:29:01;101104.94;;;14.17;100.00
21640;BME280;10981;45.462;10.974;2022-10-16T03:31:31;101112.44;;;14.12;100.00
21640;BME280;10981;45.462;10.974;2022-10-16T03:33:59;101113.69;;;14.08;100.00
21640;BME280;10981;45.462;10.974;2022-10-16T03:36:28;101115.88;;;14.03;100.00
21640;BME280;10981;45.462;10.974;2022-10-16T03:38:57;101109.66;;;14.04;100.00
21640;BME280;10981;45.462;10.974;2022-10-16T03:41:25;101116.03;;;14.01;100.00
21640;BME280;10981;45.462;10.974;2022-10-16T03:43:53;101118.22;;;13.96;100.00
21640;BME280;10981;45.462;10.974;2022-10-16T03:46:21;101118.47;;;13.93;100.00
21640;BME280;10981;45.462;10.974;2022-10-16T03:48:50;101118.75;;;13.90;100.00
21640;BME280;10981;45.462;10.974;2022-10-16T03:51:18;101123.84;;;13.82;100.00
21640;BME280;10981;45.462;10.974;2022-10-16T03:53:46;101115.50;;;13.67;100.00
21640;BME280;10981;45.462;10.974;2022-10-16T03:56:14;101120.06;;;13.65;100.00
21640;BME280;10981;45.462;10.974;2022-10-16T03:58:42;101117.00;;;13.60;100.00
21640;BME280;10981;45.462;10.974;2022-10-16T04:01:11;101122.50;;;13.56;100.00
21640;BME280;10981;45.462;10.974;2022-10-16T04:03:39;101111.75;;;13.60;100.00
21640;BME280;10981;45.462;10.974;2022-10-16T04:06:08;101120.47;;;13.60;100.00
21640;BME280;10981;45.462;10.974;2022-10-16T04:08:36;101116.16;;;13.59;100.00
21640;BME280;10981;45.462;10.974;2022-10-16T04:11:07;101126.81;;;13.57;100.00
21640;BME280;10981;45.462;10.974;2022-10-16T04:13:35;101124.03;;;13.59;100.00
21640;BME280;10981;45.462;10.974;2022-10-16T04:16:03;101127.53;;;13.60;100.00
21640;BME280;10981;45.462;10.974;2022-10-16T04:18:32;101125.00;;;13.48;100.00
21640;BME280;10981;45.462;10.974;2022-10-16T04:21:05;101125.78;;;13.39;100.00
21640;BME280;10981;45.462;10.974;2022-10-16T04:23:33;101127.31;;;13.42;100.00
21640;BME280;10981;45.462;10.974;2022-10-16T04:26:02;101129.66;;;13.45;100.00
21640;BME280;10981;45.462;10.974;2022-10-16T04:28:30;101137.19;;;13.49;100.00
21640;BME280;10981;45.462;10.974;2022-10-16T04:30:59;101139.53;;;13.52;100.00
21640;BME280;10981;45.462;10.974;2022-10-16T04:33:27;101141.34;;;13.62;100.00
21640;BME280;10981;45.462;10.974;2022-10-16T04:36:00;101143.59;;;13.66;100.00
21640;BME280;10981;45.462;10.974;2022-10-16T04:38:29;101142.94;;;13.74;100.00
21640;BME280;10981;45.462;10.974;2022-10-16T04:40:57;101152.22;;;13.78;100.00
21640;BME280;10981;45.462;10.974;2022-10-16T04:43:26;101150.56;;;13.87;100.00
21640;BME280;10981;45.462;10.974;2022-10-16T04:45:59;101158.47;;;13.87;100.00
21640;BME280;10981;45.462;10.974;2022-10-16T04:48:27;101152.09;;;13.89;100.00
21640;BME280;10981;45.462;10.974;2022-10-16T04:50:56;101147.28;;;13.95;100.00
21640;BME280;10981;45.462;10.974;2022-10-16T04:53:24;101156.69;;;13.97;100.00
21640;BME280;10981;45.462;10.974;2022-10-16T04:55:52;101165.16;;;14.01;100.00
21640;BME280;10981;45.462;10.974;2022-10-16T04:58:21;101157.25;;;14.01;100.00
21640;BME280;10981;45.462;10.974;2022-10-16T05:00:49;101165.16;;;14.01;100.00
21640;BME280;10981;45.462;10.974;2022-10-16T05:03:18;101162.53;;;14.01;100.00
21640;BME280;10981;45.462;10.974;2022-10-16T05:05:46;101175.81;;;13.99;100.00
21640;BME280;10981;45.462;10.974;2022-10-16T05:08:16;101179.56;;;13.97;100.00
21640;BME280;10981;45.462;10.974;2022-10-16T05:10:44;101176.63;;;14.00;100.00
21640;BME280;10981;45.462;10.974;2022-10-16T05:13:13;101173.75;;;14.03;100.00
21640;BME280;10981;45.462;10.974;2022-10-16T05:15:41;101180.00;;;14.12;100.00
21640;BME280;10981;45.462;10.974;2022-10-16T05:18:09;101180.44;;;14.17;100.00
21640;BME280;10981;45.462;10.974;2022-10-16T05:20:38;101182.25;;;14.26;100.00
21640;BME280;10981;45.462;10.974;2022-10-16T05:23:06;101180.31;;;14.28;100.00
21640;BME280;10981;45.462;10.974;2022-10-16T05:25:34;101183.91;;;14.27;100.00
21640;BME280;10981;45.462;10.974;2022-10-16T05:28:03;101175.47;;;14.33;100.00
21640;BME280;10981;45.462;10.974;2022-10-16T05:30:33;101178.78;;;14.35;100.00
21640;BME280;10981;45.462;10.974;2022-10-16T05:33:02;101180.06;;;14.41;100.00
21640;BME280;10981;45.462;10.974;2022-10-16T05:35:30;101181.19;;;14.48;100.00
21640;BME280;10981;45.462;10.974;2022-10-16T05:37:58;101171.75;;;14.55;100.00
21640;BME280;10981;45.462;10.974;2022-10-16T05:40:26;101173.84;;;14.62;100.00
21640;BME280;10981;45.462;10.974;2022-10-16T05:42:56;101184.00;;;14.66;100.00
21640;BME280;10981;45.462;10.974;2022-10-16T05:45:24;101176.66;;;14.70;100.00
21640;BME280;10981;45.462;10.974;2022-10-16T05:47:52;101178.72;;;14.76;100.00
21640;BME280;10981;45.462;10.974;2022-10-16T05:50:21;101178.44;;;14.79;100.00
21640;BME280;10981;45.462;10.974;2022-10-16T05:52:49;101179.81;;;14.83;100.00
21640;BME280;10981;45.462;10.974;2022-10-16T05:55:18;101183.16;;;14.76;100.00
21640;BME280;10981;45.462;10.974;2022-10-16T05:57:46;101191.03;;;14.66;100.00
21640;BME280;10981;45.462;10.974;2022-10-16T06:00:14;101194.50;;;14.57;100.00
21640;BME280;10981;45.462;10.974;2022-10-16T06:02:42;101197.94;;;14.47;100.00
21640;BME280;10981;45.462;10.974;2022-10-16T06:05:11;101200.03;;;14.44;100.00
21640;BME280;10981;45.462;10.974;2022-10-16T06:07:39;101209.16;;;14.39;100.00
21640;BME280;10981;45.462;10.974;2022-10-16T06:10:07;101209.16;;;14.39;100.00
21640;BME280;10981;45.462;10.974;2022-10-16T06:12:36;101215.25;;;14.40;100.00
21640;BME280;10981;45.462;10.974;2022-10-16T06:15:05;101212.47;;;14.42;100.00
21640;BME280;10981;45.462;10.974;2022-10-16T06:17:33;101203.88;;;14.49;100.00
21640;BME280;10981;45.462;10.974;2022-10-16T06:20:01;101212.63;;;14.60;100.00
21640;BME280;10981;45.462;10.974;2022-10-16T06:22:29;101214.75;;;14.66;100.00
21640;BME280;10981;45.462;10.974;2022-10-16T06:24:58;101220.19;;;14.74;100.00
21640;BME280;10981;45.462;10.974;2022-10-16T06:27:26;101219.03;;;14.86;100.00
21640;BME280;10981;45.462;10.974;2022-10-16T06:29:54;101227.66;;;14.98;100.00
21640;BME280;10981;45.462;10.974;2022-10-16T06:32:22;101226.66;;;15.09;100.00
21640;BME280;10981;45.462;10.974;2022-10-16T06:34:50;101227.91;;;15.25;100.00
21640;BME280;10981;45.462;10.974;2022-10-16T06:37:19;101232.91;;;15.38;100.00
21640;BME280;10981;45.462;10.974;2022-10-16T06:39:47;101237.16;;;15.48;100.00
21640;BME280;10981;45.462;10.974;2022-10-16T06:42:15;101240.91;;;15.56;100.00
21640;BME280;10981;45.462;10.974;2022-10-16T06:44:43;101243.63;;;15.64;100.00
21640;BME280;10981;45.462;10.974;2022-10-16T06:47:12;101252.97;;;15.58;100.00
21640;BME280;10981;45.462;10.974;2022-10-16T06:49:41;101252.56;;;15.53;100.00
21640;BME280;10981;45.462;10.974;2022-10-16T06:52:09;101257.78;;;15.63;100.00
21640;BME280;10981;45.462;10.974;2022-10-16T06:54:37;101259.88;;;15.69;100.00
21640;BME280;10981;45.462;10.974;2022-10-16T06:57:09;101264.31;;;15.78;100.00
21640;BME280;10981;45.462;10.974;2022-10-16T06:59:37;101270.56;;;15.87;100.00
21640;BME280;10981;45.462;10.974;2022-10-16T07:02:13;101275.09;;;15.95;100.00
21640;BME280;10981;45.462;10.974;2022-10-16T07:04:41;101270.16;;;16.10;100.00
21640;BME280;10981;45.462;10.974;2022-10-16T07:07:10;101270.94;;;16.20;100.00
21640;BME280;10981;45.462;10.974;2022-10-16T07:09:38;101272.16;;;16.36;100.00
21640;BME280;10981;45.462;10.974;2022-10-16T07:12:08;101288.44;;;16.49;100.00
21640;BME280;10981;45.462;10.974;2022-10-16T07:14:36;101282.16;;;16.60;100.00
21640;BME280;10981;45.462;10.974;2022-10-16T07:17:04;101288.19;;;16.70;100.00
21640;BME280;10981;45.462;10.974;2022-10-16T07:19:32;101293.13;;;16.83;100.00
21640;BME280;10981;45.462;10.974;2022-10-16T07:22:01;101298.50;;;16.91;100.00
21640;BME280;10981;45.462;10.974;2022-10-16T07:24:30;101303.50;;;16.94;100.00
21640;BME280;10981;45.462;10.974;2022-10-16T07:26:59;101308.38;;;16.89;100.00
21640;BME280;10981;45.462;10.974;2022-10-16T07:29:27;101312.63;;;17.00;100.00
21640;BME280;10981;45.462;10.974;2022-10-16T07:31:58;101318.59;;;17.02;100.00
21640;BME280;10981;45.462;10.974;2022-10-16T07:34:26;101322.06;;;17.03;100.00
21640;BME280;10981;45.462;10.974;2022-10-16T07:36:55;101325.03;;;16.99;100.00
21640;BME280;10981;45.462;10.974;2022-10-16T07:39:23;101330.31;;;16.99;100.00
21640;BME280;10981;45.462;10.974;2022-10-16T07:41:51;101330.91;;;17.11;100.00
21640;BME280;10981;45.462;10.974;2022-10-16T07:44:20;101335.81;;;17.24;100.00
21640;BME280;10981;45.462;10.974;2022-10-16T07:46:48;101340.41;;;17.40;100.00
21640;BME280;10981;45.462;10.974;2022-10-16T07:49:16;101334.41;;;17.56;100.00
21640;BME280;10981;45.462;10.974;2022-10-16T07:51:44;101337.91;;;17.57;100.00
21640;BME280;10981;45.462;10.974;2022-10-16T07:54:12;101338.28;;;17.62;100.00
21640;BME280;10981;45.462;10.974;2022-10-16T07:56:41;101338.47;;;17.69;100.00
21640;BME280;10981;45.462;10.974;2022-10-16T07:59:12;101337.59;;;17.86;100.00
21640;BME280;10981;45.462;10.974;2022-10-16T08:01:40;101339.13;;;17.89;100.00
21640;BME280;10981;45.462;10.974;2022-10-16T08:04:10;101347.38;;;17.86;100.00
21640;BME280;10981;45.462;10.974;2022-10-16T08:06:40;101353.28;;;17.79;100.00
21640;BME280;10981;45.462;10.974;2022-10-16T08:09:09;101349.59;;;17.72;100.00
21640;BME280;10981;45.462;10.974;2022-10-16T08:11:37;101357.84;;;17.69;100.00
21640;BME280;10981;45.462;10.974;2022-10-16T08:14:05;101355.38;;;17.94;100.00
21640;BME280;10981;45.462;10.974;2022-10-16T08:16:33;101350.28;;;18.27;100.00
21640;BME280;10981;45.462;10.974;2022-10-16T08:19:02;101347.09;;;18.58;100.00
21640;BME280;10981;45.462;10.974;2022-10-16T08:21:30;101345.34;;;18.83;100.00
21640;BME280;10981;45.462;10.974;2022-10-16T08:23:58;101342.91;;;19.06;100.00
21640;BME280;10981;45.462;10.974;2022-10-16T08:26:29;101351.22;;;19.28;100.00
21640;BME280;10981;45.462;10.974;2022-10-16T08:28:57;101349.75;;;19.50;100.00
21640;BME280;10981;45.462;10.974;2022-10-16T08:31:28;101343.91;;;19.71;100.00
21640;BME280;10981;45.462;10.974;2022-10-16T08:33:57;101344.28;;;19.85;100.00
21640;BME280;10981;45.462;10.974;2022-10-16T08:36:25;101344.56;;;20.06;100.00
21640;BME280;10981;45.462;10.974;2022-10-16T08:38:53;101346.66;;;20.19;100.00
21640;BME280;10981;45.462;10.974;2022-10-16T08:47:33;101342.38;;;20.58;100.00
21640;BME280;10981;45.462;10.974;2022-10-16T08:50:11;101344.00;;;20.59;100.00
21640;BME280;10981;45.462;10.974;2022-10-16T08:52:43;101343.50;;;20.64;100.00
21640;BME280;10981;45.462;10.974;2022-10-16T08:58:18;101347.53;;;20.51;100.00
21640;BME280;10981;45.462;10.974;2022-10-16T09:00:54;101338.00;;;20.65;100.00
21640;BME280;10981;45.462;10.974;2022-10-16T09:04:05;101345.72;;;20.52;100.00
21640;BME280;10981;45.462;10.974;2022-10-16T09:06:50;101343.31;;;20.65;100.00
21640;BME280;10981;45.462;10.974;2022-10-16T09:15:35;101349.41;;;20.82;100.00
21640;BME280;10981;45.462;10.974;2022-10-16T09:20:53;101346.47;;;20.77;100.00
21640;BME280;10981;45.462;10.974;2022-10-16T09:23:30;101349.22;;;20.84;100.00
21640;BME280;10981;45.462;10.974;2022-10-16T09:25:59;101345.88;;;20.90;100.00
21640;BME280;10981;45.462;10.974;2022-10-16T09:28:30;101349.59;;;21.04;100.00
21640;BME280;10981;45.462;10.974;2022-10-16T09:30:59;101348.13;;;21.01;100.00
21640;BME280;10981;45.462;10.974;2022-10-16T09:33:35;101349.53;;;21.12;100.00
21640;BME280;10981;45.462;10.974;2022-10-16T09:36:05;101343.22;;;21.13;100.00
21640;BME280;10981;45.462;10.974;2022-10-16T09:38:36;101332.22;;;21.16;100.00
21640;BME280;10981;45.462;10.974;2022-10-16T09:41:18;101342.50;;;21.19;100.00
21640;BME280;10981;45.462;10.974;2022-10-16T09:51:46;101341.00;;;21.40;100.00
21640;BME280;10981;45.462;10.974;2022-10-16T09:54:17;101338.91;;;21.50;100.00
21640;BME280;10981;45.462;10.974;2022-10-16T09:56:49;101336.22;;;21.59;99.94
21640;BME280;10981;45.462;10.974;2022-10-16T09:59:22;101339.19;;;21.64;100.00
21640;BME280;10981;45.462;10.974;2022-10-16T10:01:56;101342.66;;;21.64;100.00
21640;BME280;10981;45.462;10.974;2022-10-16T10:04:38;101340.66;;;21.66;99.12
21640;BME280;10981;45.462;10.974;2022-10-16T10:07:18;101336.31;;;21.65;99.79
21640;BME280;10981;45.462;10.974;2022-10-16T10:09:48;101337.59;;;21.69;100.00
21640;BME280;10981;45.462;10.974;2022-10-16T10:12:25;101343.03;;;21.76;100.00
21640;BME280;10981;45.462;10.974;2022-10-16T10:15:02;101333.22;;;21.77;99.05
21640;BME280;10981;45.462;10.974;2022-10-16T10:17:31;101340.56;;;21.90;100.00
21640;BME280;10981;45.462;10.974;2022-10-16T10:20:18;101333.31;;;21.98;100.00
21640;BME280;10981;45.462;10.974;2022-10-16T10:22:50;101338.94;;;22.03;100.00
21640;BME280;10981;45.462;10.974;2022-10-16T10:31:20;101329.75;;;22.21;97.72
21640;BME280;10981;45.462;10.974;2022-10-16T10:36:39;101330.34;;;22.23;95.68
21640;BME280;10981;45.462;10.974;2022-10-16T10:42:24;101338.81;;;22.27;96.13
21640;BME280;10981;45.462;10.974;2022-10-16T10:45:14;101328.19;;;22.42;97.40
21640;BME280;10981;45.462;10.974;2022-10-16T10:47:48;101330.72;;;22.50;94.18
21640;BME280;10981;45.462;10.974;2022-10-16T10:53:17;101329.94;;;22.71;95.21
21640;BME280;10981;45.462;10.974;2022-10-16T11:01:12;101330.91;;;22.48;97.29
21640;BME280;10981;45.462;10.974;2022-10-16T11:06:44;101318.56;;;22.62;92.09
21640;BME280;10981;45.462;10.974;2022-10-16T11:12:00;101326.38;;;22.64;95.56
21640;BME280;10981;45.462;10.974;2022-10-16T11:14:38;101320.03;;;22.65;94.97
21640;BME280;10981;45.462;10.974;2022-10-16T11:17:27;101323.97;;;22.69;95.03
21640;BME280;10981;45.462;10.974;2022-10-16T11:23:13;101324.53;;;22.64;98.21
21640;BME280;10981;45.462;10.974;2022-10-16T11:25:46;101321.69;;;22.66;97.85
21640;BME280;10981;45.462;10.974;2022-10-16T11:31:13;101323.72;;;23.07;99.59
21640;BME280;10981;45.462;10.974;2022-10-16T11:33:58;101324.72;;;23.06;92.08
21640;BME280;10981;45.462;10.974;2022-10-16T11:36:42;101320.75;;;23.39;91.79
21640;BME280;10981;45.462;10.974;2022-10-16T11:39:24;101321.75;;;23.66;93.20
21640;BME280;10981;45.462;10.974;2022-10-16T11:47:43;101315.16;;;23.90;90.98
21640;BME280;10981;45.462;10.974;2022-10-16T11:55:56;101316.97;;;24.80;83.70
21640;BME280;10981;45.462;10.974;2022-10-16T12:08:58;64048.03;;;-145.56;100.00
21640;BME280;10981;45.462;10.974;2022-10-16T12:11:32;64048.03;;;-145.56;100.00
21640;BME280;10981;45.462;10.974;2022-10-16T12:19:19;101307.88;;;24.68;81.71
21640;BME280;10981;45.462;10.974;2022-10-16T12:21:57;101305.53;;;24.51;81.64
21640;BME280;10981;45.462;10.974;2022-10-16T12:24:45;101311.66;;;24.31;80.46
21640;BME280;10981;45.462;10.974;2022-10-16T12:27:36;101313.19;;;24.61;83.01
21640;BME280;10981;45.462;10.974;2022-10-16T12:30:06;101311.81;;;24.72;83.05
21640;BME280;10981;45.462;10.974;2022-10-16T12:32:37;101307.41;;;24.51;81.28
21640;BME280;10981;45.462;10.974;2022-10-16T12:35:44;101309.22;;;24.43;84.17
21640;BME280;10981;45.462;10.974;2022-10-16T12:38:26;101313.38;;;24.59;80.52
21640;BME280;10981;45.462;10.974;2022-10-16T12:41:02;101309.78;;;24.94;81.56
21640;BME280;10981;45.462;10.974;2022-10-16T12:43:46;101315.16;;;25.21;80.76
21640;BME280;10981;45.462;10.974;2022-10-16T12:48:44;101311.47;;;25.49;78.96
21640;BME280;10981;45.462;10.974;2022-10-16T12:51:35;101313.09;;;25.09;79.56
21640;BME280;10981;45.462;10.974;2022-10-16T12:54:15;101308.16;;;25.13;80.31
21640;BME280;10981;45.462;10.974;2022-10-16T12:59:46;101314.06;;;24.81;81.10
21640;BME280;10981;45.462;10.974;2022-10-16T13:02:44;101308.53;;;25.30;81.06
21640;BME280;10981;45.462;10.974;2022-10-16T13:14:09;101320.59;;;26.58;74.08
21640;BME280;10981;45.462;10.974;2022-10-16T13:19:35;101324.97;;;26.91;72.99
21640;BME280;10981;45.462;10.974;2022-10-16T13:22:21;101323.38;;;26.38;74.62
21640;BME280;10981;45.462;10.974;2022-10-16T13:25:26;101320.66;;;25.86;75.59
21640;BME280;10981;45.462;10.974;2022-10-16T13:28:08;101325.69;;;25.42;76.72
21640;BME280;10981;45.462;10.974;2022-10-16T13:30:51;101333.06;;;25.20;78.97
21640;BME280;10981;45.462;10.974;2022-10-16T13:33:35;101327.94;;;25.59;79.14
21640;BME280;10981;45.462;10.974;2022-10-16T13:36:06;101325.25;;;25.72;75.85
21640;BME280;10981;45.462;10.974;2022-10-16T13:38:35;101326.69;;;25.55;77.11
21640;BME280;10981;45.462;10.974;2022-10-16T13:41:15;101333.28;;;25.32;79.10
21640;BME280;10981;45.462;10.974;2022-10-16T13:43:46;101324.19;;;25.00;77.88
21640;BME280;10981;45.462;10.974;2022-10-16T13:48:55;101332.44;;;25.25;84.85
21640;BME280;10981;45.462;10.974;2022-10-16T13:51:24;101328.78;;;25.46;82.07
21640;BME280;10981;45.462;10.974;2022-10-16T13:53:54;101336.38;;;25.42;77.53
21640;BME280;10981;45.462;10.974;2022-10-16T13:56:27;101338.63;;;25.19;80.49
21640;BME280;10981;45.462;10.974;2022-10-16T13:59:06;101337.13;;;24.69;81.74
21640;BME280;10981;45.462;10.974;2022-10-16T14:01:42;101334.13;;;24.51;84.63
21640;BME280;10981;45.462;10.974;2022-10-16T14:04:13;101333.91;;;24.39;81.83
21640;BME280;10981;45.462;10.974;2022-10-16T14:06:44;101349.38;;;24.50;83.46
21640;BME280;10981;45.462;10.974;2022-10-16T14:09:29;101342.25;;;24.71;82.93
21640;BME280;10981;45.462;10.974;2022-10-16T14:12:01;101341.25;;;24.78;82.61
21640;BME280;10981;45.462;10.974;2022-10-16T14:14:47;101343.28;;;24.83;80.77
21640;BME280;10981;45.462;10.974;2022-10-16T14:19:48;101345.66;;;24.51;83.77
21640;BME280;10981;45.462;10.974;2022-10-16T14:28:03;101347.84;;;24.27;85.83
21640;BME280;10981;45.462;10.974;2022-10-16T14:30:34;101339.06;;;24.05;85.75
21640;BME280;10981;45.462;10.974;2022-10-16T14:33:06;101344.38;;;23.92;86.38
21640;BME280;10981;45.462;10.974;2022-10-16T14:35:46;101347.78;;;23.86;88.75
21640;BME280;10981;45.462;10.974;2022-10-16T14:38:20;101346.28;;;23.76;90.35
21640;BME280;10981;45.462;10.974;2022-10-16T14:40:49;101349.25;;;23.60;91.23
21640;BME280;10981;45.462;10.974;2022-10-16T14:43:26;101347.41;;;23.60;90.50
21640;BME280;10981;45.462;10.974;2022-10-16T14:45:57;101350.34;;;23.72;90.11
21640;BME280;10981;45.462;10.974;2022-10-16T14:48:25;101351.19;;;23.73;89.96
21640;BME280;10981;45.462;10.974;2022-10-16T14:50:55;101347.81;;;23.57;92.91
21640;BME280;10981;45.462;10.974;2022-10-16T14:53:23;101343.28;;;23.58;93.06
21640;BME280;10981;45.462;10.974;2022-10-16T14:55:51;101341.13;;;23.46;92.29
21640;BME280;10981;45.462;10.974;2022-10-16T14:58:23;101342.63;;;23.27;93.46
21640;BME280;10981;45.462;10.974;2022-10-16T15:00:56;101336.91;;;23.09;94.35